sensor_id;sensor_type;location;lat;lon;timestamp;pressure;altitude;pressure_sealevel;temperature;humidity
45129;BME280;35512;56.312;101.728;2022-10-01T00:02:08;96712.72;;;-2.08;94.18
45129;BME280;35512;56.312;101.728;2022-10-01T00:04:37;96692.34;;;-2.13;94.01
45129;BME280;35512;56.312;101.728;2022-10-01T00:07:07;96709.25;;;-2.04;94.19
45129;BME280;35512;56.312;101.728;2022-10-01T00:09:42;96709.22;;;-1.98;93.76
45129;BME280;35512;56.312;101.728;2022-10-01T00:12:11;96716.31;;;-1.94;93.81
45129;BME280;35512;56.312;101.728;2022-10-01T00:14:43;96711.28;;;-1.90;93.48
45129;BME280;35512;56.312;101.728;2022-10-01T00:17:12;96711.00;;;-1.89;93.56
45129;BME280;35512;56.312;101.728;2022-10-01T00:19:41;96716.00;;;-1.82;93.69
45129;BME280;35512;56.312;101.728;2022-10-01T00:22:10;96717.03;;;-1.78;94.07
45129;BME280;35512;56.312;101.728;2022-10-01T00:24:38;96722.59;;;-1.74;93.98
45129;BME280;35512;56.312;101.728;2022-10-01T00:27:08;96727.56;;;-1.67;94.07
45129;BME280;35512;56.312;101.728;2022-10-01T00:29:39;96725.69;;;-1.62;94.43
45129;BME280;35512;56.312;101.728;2022-10-01T00:32:08;96732.00;;;-1.58;94.35
45129;BME280;35512;56.312;101.728;2022-10-01T00:34:37;96735.41;;;-1.52;94.14
45129;BME280;35512;56.312;101.728;2022-10-01T00:37:06;96739.59;;;-1.46;93.67
45129;BME280;35512;56.312;101.728;2022-10-01T00:39:37;96746.44;;;-1.40;93.87
45129;BME280;35512;56.312;101.728;2022-10-01T00:42:17;96744.53;;;-1.34;94.51
45129;BME280;35512;56.312;101.728;2022-10-01T00:44:47;96743.44;;;-1.28;93.90
45129;BME280;35512;56.312;101.728;2022-10-01T00:50:00;96750.25;;;-1.22;94.37
45129;BME280;35512;56.312;101.728;2022-10-01T00:52:37;96740.22;;;-1.25;94.26
45129;BME280;35512;56.312;101.728;2022-10-01T00:55:15;96755.53;;;-1.16;93.64
45129;BME280;35512;56.312;101.728;2022-10-01T00:57:45;96750.47;;;-1.13;94.18
45129;BME280;35512;56.312;101.728;2022-10-01T01:00:15;96744.06;;;-1.12;93.93
45129;BME280;35512;56.312;101.728;2022-10-01T01:02:44;96761.81;;;-1.07;93.75
45129;BME280;35512;56.312;101.728;2022-10-01T01:05:13;96757.00;;;-1.05;93.79
45129;BME280;35512;56.312;101.728;2022-10-01T01:07:45;96765.53;;;-1.08;94.33
45129;BME280;35512;56.312;101.728;2022-10-01T01:10:17;96767.09;;;-1.02;94.22
45129;BME280;35512;56.312;101.728;2022-10-01T01:13:16;96763.34;;;-1.01;93.88
45129;BME280;35512;56.312;101.728;2022-10-01T01:16:35;96777.88;;;-0.93;94.68
45129;BME280;35512;56.312;101.728;2022-10-01T01:21:31;96770.38;;;-0.86;94.06
45129;BME280;35512;56.312;101.728;2022-10-01T01:30:19;96779.50;;;-0.68;94.30
45129;BME280;35512;56.312;101.728;2022-10-01T01:33:01;96788.75;;;-0.65;93.86
45129;BME280;35512;56.312;101.728;2022-10-01T01:35:36;96782.47;;;-0.75;93.91
45129;BME280;35512;56.312;101.728;2022-10-01T01:38:12;96795.34;;;-0.63;94.62
45129;BME280;35512;56.312;101.728;2022-10-01T01:40:43;96799.09;;;-0.64;93.95
45129;BME280;35512;56.312;101.728;2022-10-01T01:43:17;96791.97;;;-0.69;94.02
45129;BME280;35512;56.312;101.728;2022-10-01T01:45:50;96800.09;;;-0.60;93.80
45129;BME280;35512;56.312;101.728;2022-10-01T01:48:22;96795.34;;;-0.63;94.13
45129;BME280;35512;56.312;101.728;2022-10-01T01:51:05;96799.03;;;-0.59;94.24
45129;BME280;35512;56.312;101.728;2022-10-01T01:53:36;96800.84;;;-0.54;94.23
45129;BME280;35512;56.312;101.728;2022-10-01T01:56:06;96807.63;;;-0.43;94.18
45129;BME280;35512;56.312;101.728;2022-10-01T01:58:37;96805.16;;;-0.34;94.36
45129;BME280;35512;56.312;101.728;2022-10-01T02:01:06;96799.78;;;-0.29;93.85
45129;BME280;35512;56.312;101.728;2022-10-01T02:03:36;96800.75;;;-0.20;94.45
45129;BME280;35512;56.312;101.728;2022-10-01T02:06:14;96810.97;;;-0.08;94.38
45129;BME280;35512;56.312;101.728;2022-10-01T02:08:56;96815.13;;;-0.02;94.25
45129;BME280;35512;56.312;101.728;2022-10-01T02:11:35;96806.09;;;-0.01;94.28
45129;BME280;35512;56.312;101.728;2022-10-01T02:17:05;96815.25;;;0.12;94.11
45129;BME280;35512;56.312;101.728;2022-10-01T02:19:44;96826.94;;;0.11;93.88
45129;BME280;35512;56.312;101.728;2022-10-01T02:25:00;96820.19;;;0.19;93.46
45129;BME280;35512;56.312;101.728;2022-10-01T02:27:42;96823.38;;;0.21;93.28
45129;BME280;35512;56.312;101.728;2022-10-01T02:30:12;96826.88;;;0.16;93.45
45129;BME280;35512;56.312;101.728;2022-10-01T02:32:43;96829.06;;;0.09;93.57
45129;BME280;35512;56.312;101.728;2022-10-01T02:35:15;96829.31;;;0.13;93.37
45129;BME280;35512;56.312;101.728;2022-10-01T02:37:47;96826.66;;;0.13;93.28
45129;BME280;35512;56.312;101.728;2022-10-01T02:40:21;96827.53;;;0.08;93.48
45129;BME280;35512;56.312;101.728;2022-10-01T02:42:59;96837.13;;;0.04;92.86
45129;BME280;35512;56.312;101.728;2022-10-01T02:45:31;96828.59;;;0.07;93.32
45129;BME280;35512;56.312;101.728;2022-10-01T02:48:07;96828.53;;;0.12;93.38
45129;BME280;35512;56.312;101.728;2022-10-01T02:50:49;96839.53;;;0.25;93.57
45129;BME280;35512;56.312;101.728;2022-10-01T02:53:26;96841.84;;;0.31;93.47
45129;BME280;35512;56.312;101.728;2022-10-01T02:55:58;96836.78;;;0.30;93.22
45129;BME280;35512;56.312;101.728;2022-10-01T02:58:29;96840.91;;;0.22;92.80
45129;BME280;35512;56.312;101.728;2022-10-01T03:00:59;96846.50;;;0.21;93.27
45129;BME280;35512;56.312;101.728;2022-10-01T03:03:28;96854.22;;;0.17;93.40
45129;BME280;35512;56.312;101.728;2022-10-01T03:05:59;96856.53;;;0.24;92.95
45129;BME280;35512;56.312;101.728;2022-10-01T03:08:27;96850.94;;;0.25;92.95
45129;BME280;35512;56.312;101.728;2022-10-01T03:10:56;96849.97;;;0.40;92.79
45129;BME280;35512;56.312;101.728;2022-10-01T03:13:25;96848.44;;;0.53;92.98
45129;BME280;35512;56.312;101.728;2022-10-01T03:15:54;96854.22;;;0.60;92.99
45129;BME280;35512;56.312;101.728;2022-10-01T03:18:23;96849.19;;;0.59;92.95
45129;BME280;35512;56.312;101.728;2022-10-01T03:20:52;96858.81;;;0.55;92.83
45129;BME280;35512;56.312;101.728;2022-10-01T03:23:21;96847.63;;;0.58;93.08
45129;BME280;35512;56.312;101.728;2022-10-01T03:25:50;96852.56;;;0.64;92.87
45129;BME280;35512;56.312;101.728;2022-10-01T03:28:18;96856.19;;;0.74;92.88
45129;BME280;35512;56.312;101.728;2022-10-01T03:30:47;96859.53;;;0.79;92.98
45129;BME280;35512;56.312;101.728;2022-10-01T03:33:16;96858.53;;;0.75;92.76
45129;BME280;35512;56.312;101.728;2022-10-01T03:35:45;96848.31;;;0.82;92.80
45129;BME280;35512;56.312;101.728;2022-10-01T03:38:14;96873.31;;;0.81;92.57
45129;BME280;35512;56.312;101.728;2022-10-01T03:40:42;96868.47;;;0.89;92.83
45129;BME280;35512;56.312;101.728;2022-10-01T03:43:11;96869.59;;;0.82;92.81
45129;BME280;35512;56.312;101.728;2022-10-01T03:45:40;96880.28;;;0.77;92.75
45129;BME280;35512;56.312;101.728;2022-10-01T03:48:09;96877.78;;;0.67;92.50
45129;BME280;35512;56.312;101.728;2022-10-01T03:50:38;96880.09;;;0.74;92.40
45129;BME280;35512;56.312;101.728;2022-10-01T03:53:06;96877.63;;;0.96;92.70
45129;BME280;35512;56.312;101.728;2022-10-01T03:55:36;96880.34;;;1.10;92.93
45129;BME280;35512;56.312;101.728;2022-10-01T03:58:04;96895.94;;;1.17;93.09
45129;BME280;35512;56.312;101.728;2022-10-01T04:00:34;96893.78;;;1.38;92.81
45129;BME280;35512;56.312;101.728;2022-10-01T04:03:04;96893.47;;;1.73;93.50
45129;BME280;35512;56.312;101.728;2022-10-01T04:05:34;96890.75;;;2.06;93.79
45129;BME280;35512;56.312;101.728;2022-10-01T04:08:05;96900.03;;;2.08;93.76
45129;BME280;35512;56.312;101.728;2022-10-01T04:10:34;96901.22;;;2.02;93.09
45129;BME280;35512;56.312;101.728;2022-10-01T04:13:03;96898.66;;;1.97;93.07
45129;BME280;35512;56.312;101.728;2022-10-01T04:15:32;96897.97;;;2.05;93.37
45129;BME280;35512;56.312;101.728;2022-10-01T04:18:02;96908.03;;;2.22;93.41
45129;BME280;35512;56.312;101.728;2022-10-01T04:20:35;96902.31;;;2.15;93.43
45129;BME280;35512;56.312;101.728;2022-10-01T04:23:04;96906.56;;;2.02;93.21
45129;BME280;35512;56.312;101.728;2022-10-01T04:25:33;96917.13;;;2.21;92.93
45129;BME280;35512;56.312;101.728;2022-10-01T04:28:04;96911.78;;;2.35;93.20
45129;BME280;35512;56.312;101.728;2022-10-01T04:30:37;96910.59;;;2.27;93.45
45129;BME280;35512;56.312;101.728;2022-10-01T04:33:06;96912.56;;;2.35;92.90
45129;BME280;35512;56.312;101.728;2022-10-01T04:35:36;96905.44;;;2.59;93.24
45129;BME280;35512;56.312;101.728;2022-10-01T04:38:09;96913.25;;;2.69;93.17
45129;BME280;35512;56.312;101.728;2022-10-01T04:40:39;96922.41;;;2.91;93.13
45129;BME280;35512;56.312;101.728;2022-10-01T04:43:10;96921.91;;;3.25;93.37
45129;BME280;35512;56.312;101.728;2022-10-01T04:45:40;96918.03;;;3.77;92.90
45129;BME280;35512;56.312;101.728;2022-10-01T04:48:09;96915.63;;;4.38;93.13
45129;BME280;35512;56.312;101.728;2022-10-01T04:50:38;96908.78;;;4.63;92.07
45129;BME280;35512;56.312;101.728;2022-10-01T04:53:07;96924.25;;;4.75;92.34
45129;BME280;35512;56.312;101.728;2022-10-01T04:55:36;96924.13;;;4.40;91.32
45129;BME280;35512;56.312;101.728;2022-10-01T04:58:05;96934.94;;;3.95;91.02
45129;BME280;35512;56.312;101.728;2022-10-01T05:00:34;96932.72;;;3.65;90.94
45129;BME280;35512;56.312;101.728;2022-10-01T05:03:03;96936.41;;;3.78;91.53
45129;BME280;35512;56.312;101.728;2022-10-01T05:05:32;96930.94;;;4.46;91.75
45129;BME280;35512;56.312;101.728;2022-10-01T05:08:02;96937.53;;;5.24;91.64
45129;BME280;35512;56.312;101.728;2022-10-01T05:10:31;96938.97;;;6.30;91.97
45129;BME280;35512;56.312;101.728;2022-10-01T05:13:00;96939.09;;;6.72;90.63
45129;BME280;35512;56.312;101.728;2022-10-01T05:15:29;96938.03;;;7.16;90.35
45129;BME280;35512;56.312;101.728;2022-10-01T05:17:58;96939.78;;;7.54;90.06
45129;BME280;35512;56.312;101.728;2022-10-01T05:20:27;96949.28;;;7.72;89.32
45129;BME280;35512;56.312;101.728;2022-10-01T05:22:56;96938.72;;;7.34;87.78
45129;BME280;35512;56.312;101.728;2022-10-01T05:25:25;96953.09;;;6.48;87.47
45129;BME280;35512;56.312;101.728;2022-10-01T05:27:59;96935.09;;;6.10;87.94
45129;BME280;35512;56.312;101.728;2022-10-01T05:30:33;96945.03;;;6.01;88.75
45129;BME280;35512;56.312;101.728;2022-10-01T05:33:03;96942.72;;;5.73;89.18
45129;BME280;35512;56.312;101.728;2022-10-01T05:35:32;96955.13;;;4.99;88.30
45129;BME280;35512;56.312;101.728;2022-10-01T05:38:01;96951.81;;;4.44;88.47
45129;BME280;35512;56.312;101.728;2022-10-01T05:40:31;96950.25;;;4.12;88.90
45129;BME280;35512;56.312;101.728;2022-10-01T05:43:00;96954.06;;;3.88;89.33
45129;BME280;35512;56.312;101.728;2022-10-01T05:45:32;96964.75;;;4.51;90.51
45129;BME280;35512;56.312;101.728;2022-10-01T05:48:03;96960.66;;;4.94;90.72
45129;BME280;35512;56.312;101.728;2022-10-01T05:50:34;96955.00;;;5.21;89.65
45129;BME280;35512;56.312;101.728;2022-10-01T05:53:03;96959.59;;;5.47;89.97
45129;BME280;35512;56.312;101.728;2022-10-01T05:55:33;96971.38;;;6.07;90.64
45129;BME280;35512;56.312;101.728;2022-10-01T05:58:05;96969.28;;;6.22;90.13
45129;BME280;35512;56.312;101.728;2022-10-01T06:00:35;96967.44;;;6.05;89.46
45129;BME280;35512;56.312;101.728;2022-10-01T06:03:06;96974.41;;;5.62;88.99
45129;BME280;35512;56.312;101.728;2022-10-01T06:05:35;96978.13;;;5.00;88.67
45129;BME280;35512;56.312;101.728;2022-10-01T06:08:06;96974.03;;;5.02;89.19
45129;BME280;35512;56.312;101.728;2022-10-01T06:10:37;96974.56;;;5.48;89.53
45129;BME280;35512;56.312;101.728;2022-10-01T06:13:06;96985.91;;;5.98;90.23
45129;BME280;35512;56.312;101.728;2022-10-01T06:15:37;96987.50;;;6.46;90.33
45129;BME280;35512;56.312;101.728;2022-10-01T06:18:08;96989.94;;;6.69;89.58
45129;BME280;35512;56.312;101.728;2022-10-01T06:20:38;96989.41;;;6.46;88.66
45129;BME280;35512;56.312;101.728;2022-10-01T06:23:09;96984.78;;;6.16;88.62
45129;BME280;35512;56.312;101.728;2022-10-01T06:25:41;96994.22;;;5.87;88.79
45129;BME280;35512;56.312;101.728;2022-10-01T06:28:12;96989.38;;;5.72;89.07
45129;BME280;35512;56.312;101.728;2022-10-01T06:30:41;96988.88;;;5.44;89.19
45129;BME280;35512;56.312;101.728;2022-10-01T06:33:13;96990.72;;;4.99;88.33
45129;BME280;35512;56.312;101.728;2022-10-01T06:35:50;97002.94;;;4.11;88.14
45129;BME280;35512;56.312;101.728;2022-10-01T06:38:21;97009.97;;;3.39;87.69
45129;BME280;35512;56.312;101.728;2022-10-01T06:40:52;97007.28;;;2.88;88.70
45129;BME280;35512;56.312;101.728;2022-10-01T06:43:23;97009.03;;;2.51;89.50
45129;BME280;35512;56.312;101.728;2022-10-01T06:45:52;97008.91;;;2.29;89.78
45129;BME280;35512;56.312;101.728;2022-10-01T06:48:21;97011.28;;;2.30;90.70
45129;BME280;35512;56.312;101.728;2022-10-01T06:50:50;97015.44;;;2.36;91.14
45129;BME280;35512;56.312;101.728;2022-10-01T06:53:22;97009.91;;;2.33;91.31
45129;BME280;35512;56.312;101.728;2022-10-01T06:55:51;97011.78;;;2.18;91.30
45129;BME280;35512;56.312;101.728;2022-10-01T06:58:22;97016.78;;;2.06;91.05
45129;BME280;35512;56.312;101.728;2022-10-01T07:00:58;97022.56;;;1.94;90.96
45129;BME280;35512;56.312;101.728;2022-10-01T07:03:29;97024.75;;;2.06;91.13
45129;BME280;35512;56.312;101.728;2022-10-01T07:06:03;97025.41;;;2.31;91.52
45129;BME280;35512;56.312;101.728;2022-10-01T07:08:32;97010.41;;;2.35;91.62
45129;BME280;35512;56.312;101.728;2022-10-01T07:11:01;97022.53;;;2.27;91.45
45129;BME280;35512;56.312;101.728;2022-10-01T07:13:31;97031.91;;;2.25;91.42
45129;BME280;35512;56.312;101.728;2022-10-01T07:16:02;97025.72;;;2.29;91.56
45129;BME280;35512;56.312;101.728;2022-10-01T07:18:31;97018.28;;;2.26;91.84
45129;BME280;35512;56.312;101.728;2022-10-01T07:21:00;97019.09;;;2.27;91.53
45129;BME280;35512;56.312;101.728;2022-10-01T07:23:29;97030.19;;;2.15;91.62
45129;BME280;35512;56.312;101.728;2022-10-01T07:25:58;97020.09;;;1.98;91.34
45129;BME280;35512;56.312;101.728;2022-10-01T07:28:27;97032.19;;;1.90;91.85
45129;BME280;35512;56.312;101.728;2022-10-01T07:30:59;97039.91;;;1.73;91.50
45129;BME280;35512;56.312;101.728;2022-10-01T07:33:29;97026.13;;;1.51;91.72
45129;BME280;35512;56.312;101.728;2022-10-01T07:36:03;97048.91;;;1.39;91.62
45129;BME280;35512;56.312;101.728;2022-10-01T07:38:33;97051.88;;;1.37;91.66
45129;BME280;35512;56.312;101.728;2022-10-01T07:41:02;97050.78;;;1.38;91.60
45129;BME280;35512;56.312;101.728;2022-10-01T07:43:32;97049.13;;;1.23;92.20
45129;BME280;35512;56.312;101.728;2022-10-01T07:46:02;97057.50;;;1.11;91.88
45129;BME280;35512;56.312;101.728;2022-10-01T07:48:32;97055.44;;;1.08;92.25
45129;BME280;35512;56.312;101.728;2022-10-01T07:51:01;97059.69;;;1.09;92.01
45129;BME280;35512;56.312;101.728;2022-10-01T07:53:30;97061.88;;;1.02;92.10
45129;BME280;35512;56.312;101.728;2022-10-01T07:56:02;97060.94;;;0.93;92.45
45129;BME280;35512;56.312;101.728;2022-10-01T07:58:31;97071.78;;;0.72;92.37
45129;BME280;35512;56.312;101.728;2022-10-01T08:01:02;97065.56;;;0.58;91.86
45129;BME280;35512;56.312;101.728;2022-10-01T08:03:32;97072.88;;;0.42;91.88
45129;BME280;35512;56.312;101.728;2022-10-01T08:06:01;97079.56;;;0.34;92.09
45129;BME280;35512;56.312;101.728;2022-10-01T08:08:36;97080.19;;;0.26;92.56
45129;BME280;35512;56.312;101.728;2022-10-01T08:11:05;97075.69;;;0.26;92.28
45129;BME280;35512;56.312;101.728;2022-10-01T08:13:36;97068.72;;;0.30;92.56
45129;BME280;35512;56.312;101.728;2022-10-01T08:16:06;97079.34;;;0.30;92.72
45129;BME280;35512;56.312;101.728;2022-10-01T08:18:37;97077.19;;;0.32;92.94
45129;BME280;35512;56.312;101.728;2022-10-01T08:21:08;97085.59;;;0.45;92.64
45129;BME280;35512;56.312;101.728;2022-10-01T08:23:37;97082.84;;;0.55;93.51
45129;BME280;35512;56.312;101.728;2022-10-01T08:26:07;97084.66;;;0.60;92.84
45129;BME280;35512;56.312;101.728;2022-10-01T08:28:36;97091.28;;;0.62;93.00
45129;BME280;35512;56.312;101.728;2022-10-01T08:31:05;97088.34;;;0.64;93.37
45129;BME280;35512;56.312;101.728;2022-10-01T08:33:36;97094.97;;;0.66;93.31
45129;BME280;35512;56.312;101.728;2022-10-01T08:36:06;97101.59;;;0.69;92.73
45129;BME280;35512;56.312;101.728;2022-10-01T08:38:37;97096.88;;;0.61;92.73
45129;BME280;35512;56.312;101.728;2022-10-01T08:41:38;97102.75;;;0.58;93.05
45129;BME280;35512;56.312;101.728;2022-10-01T08:44:24;97102.03;;;0.52;92.79
45129;BME280;35512;56.312;101.728;2022-10-01T08:46:59;97104.59;;;0.33;92.73
45129;BME280;35512;56.312;101.728;2022-10-01T08:49:38;97101.69;;;0.29;92.64
45129;BME280;35512;56.312;101.728;2022-10-01T08:52:29;97103.03;;;0.27;92.83
45129;BME280;35512;56.312;101.728;2022-10-01T08:58:13;97111.72;;;0.03;92.97
45129;BME280;35512;56.312;101.728;2022-10-01T09:00:21;97112.53;;;-0.02;92.71
45129;BME280;35512;56.312;101.728;2022-10-01T09:02:50;97115.97;;;0.04;92.93
45129;BME280;35512;56.312;101.728;2022-10-01T09:08:30;97126.09;;;-0.08;92.82
45129;BME280;35512;56.312;101.728;2022-10-01T09:17:07;97135.88;;;-0.38;93.24
45129;BME280;35512;56.312;101.728;2022-10-01T09:22:39;97125.88;;;-0.67;93.36
45129;BME280;35512;56.312;101.728;2022-10-01T09:28:00;97140.28;;;-0.89;93.20
45129;BME280;35512;56.312;101.728;2022-10-01T09:30:30;97134.47;;;-0.91;93.15
45129;BME280;35512;56.312;101.728;2022-10-01T09:33:17;97147.50;;;-0.99;93.13
45129;BME280;35512;56.312;101.728;2022-10-01T09:36:19;97143.25;;;-1.11;93.18
45129;BME280;35512;56.312;101.728;2022-10-01T09:41:36;97150.97;;;-1.20;93.29
45129;BME280;35512;56.312;101.728;2022-10-01T09:44:15;97138.78;;;-1.15;93.70
45129;BME280;35512;56.312;101.728;2022-10-01T09:46:46;97144.59;;;-1.08;93.92
45129;BME280;35512;56.312;101.728;2022-10-01T09:49:33;97144.59;;;-1.08;93.71
45129;BME280;35512;56.312;101.728;2022-10-01T09:52:47;97146.47;;;-1.09;93.68
45129;BME280;35512;56.312;101.728;2022-10-01T09:58:08;97156.25;;;-1.04;93.55
45129;BME280;35512;56.312;101.728;2022-10-01T10:00:41;97157.28;;;-1.00;93.64
45129;BME280;35512;56.312;101.728;2022-10-01T10:03:24;97159.44;;;-1.07;94.02
45129;BME280;35512;56.312;101.728;2022-10-01T10:05:57;97167.94;;;-1.10;94.17
45129;BME280;35512;56.312;101.728;2022-10-01T10:08:35;97168.47;;;-1.18;94.48
45129;BME280;35512;56.312;101.728;2022-10-01T10:11:09;97170.59;;;-1.26;93.97
45129;BME280;35512;56.312;101.728;2022-10-01T10:13:40;97169.03;;;-1.32;94.39
45129;BME280;35512;56.312;101.728;2022-10-01T10:16:18;97166.38;;;-1.42;94.03
45129;BME280;35512;56.312;101.728;2022-10-01T10:18:58;97167.97;;;-1.41;94.27
45129;BME280;35512;56.312;101.728;2022-10-01T10:21:32;97177.78;;;-1.42;94.39
45129;BME280;35512;56.312;101.728;2022-10-01T10:24:18;97175.38;;;-1.43;94.15
45129;BME280;35512;56.312;101.728;2022-10-01T10:26:59;97184.94;;;-1.52;93.93
45129;BME280;35512;56.312;101.728;2022-10-01T10:29:36;97180.16;;;-1.61;93.45
45129;BME280;35512;56.312;101.728;2022-10-01T10:32:16;97187.03;;;-1.65;93.79
45129;BME280;35512;56.312;101.728;2022-10-01T10:34:50;97195.00;;;-1.65;93.99
45129;BME280;35512;56.312;101.728;2022-10-01T10:37:31;97181.75;;;-1.70;94.22
45129;BME280;35512;56.312;101.728;2022-10-01T10:40:04;97192.31;;;-1.60;93.78
45129;BME280;35512;56.312;101.728;2022-10-01T10:42:35;97186.50;;;-1.62;94.21
45129;BME280;35512;56.312;101.728;2022-10-01T10:45:15;97194.44;;;-1.62;93.93
45129;BME280;35512;56.312;101.728;2022-10-01T10:47:50;97204.00;;;-1.66;94.17
45129;BME280;35512;56.312;101.728;2022-10-01T10:50:35;97201.03;;;-1.75;94.48
45129;BME280;35512;56.312;101.728;2022-10-01T10:53:23;97203.44;;;-1.83;94.30
45129;BME280;35512;56.312;101.728;2022-10-01T10:56:19;97213.22;;;-1.94;93.98
45129;BME280;35512;56.312;101.728;2022-10-01T10:58:52;97213.72;;;-2.02;93.61
45129;BME280;35512;56.312;101.728;2022-10-01T11:01:31;97213.94;;;-2.14;93.75
45129;BME280;35512;56.312;101.728;2022-10-01T11:04:00;97216.03;;;-2.22;93.91
45129;BME280;35512;56.312;101.728;2022-10-01T11:06:30;97223.16;;;-2.32;93.39
45129;BME280;35512;56.312;101.728;2022-10-01T11:09:02;97228.16;;;-2.41;93.37
45129;BME280;35512;56.312;101.728;2022-10-01T11:19:53;97239.81;;;-2.85;93.28
45129;BME280;35512;56.312;101.728;2022-10-01T11:22:42;97249.28;;;-2.94;92.92
45129;BME280;35512;56.312;101.728;2022-10-01T11:25:26;97250.28;;;-3.00;92.94
45129;BME280;35512;56.312;101.728;2022-10-01T11:28:24;97254.47;;;-3.04;92.86
45129;BME280;35512;56.312;101.728;2022-10-01T11:31:03;97260.53;;;-3.09;92.37
45129;BME280;35512;56.312;101.728;2022-10-01T11:39:24;97268.63;;;-3.21;92.92
45129;BME280;35512;56.312;101.728;2022-10-01T11:42:13;97273.59;;;-3.25;92.73
45129;BME280;35512;56.312;101.728;2022-10-01T11:44:53;97264.13;;;-3.26;92.39
45129;BME280;35512;56.312;101.728;2022-10-01T11:47:35;97270.19;;;-3.25;92.58
45129;BME280;35512;56.312;101.728;2022-10-01T11:50:22;97282.09;;;-3.23;93.13
45129;BME280;35512;56.312;101.728;2022-10-01T11:56:02;97277.66;;;-3.17;93.09
45129;BME280;35512;56.312;101.728;2022-10-01T11:58:57;97284.28;;;-3.14;93.17
45129;BME280;35512;56.312;101.728;2022-10-01T12:05:09;97295.38;;;-3.12;92.85
45129;BME280;35512;56.312;101.728;2022-10-01T12:08:12;97302.25;;;-3.11;92.67
45129;BME280;35512;56.312;101.728;2022-10-01T12:11:09;97299.34;;;-3.10;92.82
45129;BME280;35512;56.312;101.728;2022-10-01T12:13:51;97304.16;;;-3.07;93.33
45129;BME280;35512;56.312;101.728;2022-10-01T12:19:14;97306.03;;;-3.02;93.29
45129;BME280;35512;56.312;101.728;2022-10-01T12:21:54;97314.53;;;-3.00;93.22
45129;BME280;35512;56.312;101.728;2022-10-01T12:24:32;97310.84;;;-2.94;93.06
45129;BME280;35512;56.312;101.728;2022-10-01T12:38:51;97321.34;;;-2.66;93.80
45129;BME280;35512;56.312;101.728;2022-10-01T12:41:35;97323.22;;;-2.67;93.33
45129;BME280;35512;56.312;101.728;2022-10-01T12:47:07;97323.72;;;-2.70;93.14
45129;BME280;35512;56.312;101.728;2022-10-01T12:52:38;97330.03;;;-2.76;93.68
45129;BME280;35512;56.312;101.728;2022-10-01T12:55:16;97340.59;;;-2.76;93.49
45129;BME280;35512;56.312;101.728;2022-10-01T13:00:36;97325.25;;;-2.79;93.57
45129;BME280;35512;56.312;101.728;2022-10-01T13:11:02;97342.03;;;-2.96;93.17
45129;BME280;35512;56.312;101.728;2022-10-01T13:13:35;97346.78;;;-2.98;93.34
45129;BME280;35512;56.312;101.728;2022-10-01T13:19:16;97348.06;;;-3.00;92.89
45129;BME280;35512;56.312;101.728;2022-10-01T13:21:55;97347.53;;;-3.02;93.27
45129;BME280;35512;56.312;101.728;2022-10-01T13:24:39;97353.88;;;-3.03;92.87
45129;BME280;35512;56.312;101.728;2022-10-01T13:32:32;97353.56;;;-3.07;93.23
45129;BME280;35512;56.312;101.728;2022-10-01T13:35:22;97360.69;;;-3.08;92.77
45129;BME280;35512;56.312;101.728;2022-10-01T13:37:52;97362.78;;;-3.10;92.60
45129;BME280;35512;56.312;101.728;2022-10-01T13:43:20;97359.34;;;-3.10;93.12
45129;BME280;35512;56.312;101.728;2022-10-01T13:45:54;97365.13;;;-3.13;92.88
45129;BME280;35512;56.312;101.728;2022-10-01T13:48:29;97364.06;;;-3.12;92.72
45129;BME280;35512;56.312;101.728;2022-10-01T13:51:05;97371.78;;;-3.11;92.78
45129;BME280;35512;56.312;101.728;2022-10-01T13:56:24;97366.50;;;-3.11;93.10
45129;BME280;35512;56.312;101.728;2022-10-01T13:58:56;97372.06;;;-3.07;92.62
45129;BME280;35512;56.312;101.728;2022-10-01T14:01:38;97378.16;;;-3.07;92.91
45129;BME280;35512;56.312;101.728;2022-10-01T14:04:43;97377.09;;;-3.06;93.10
45129;BME280;35512;56.312;101.728;2022-10-01T14:07:17;97376.03;;;-3.04;92.89
45129;BME280;35512;56.312;101.728;2022-10-01T14:09:51;97384.22;;;-3.06;92.67
45129;BME280;35512;56.312;101.728;2022-10-01T14:12:28;97373.59;;;-3.11;92.68
45129;BME280;35512;56.312;101.728;2022-10-01T14:15:22;97384.47;;;-3.08;93.03
45129;BME280;35512;56.312;101.728;2022-10-01T14:18:20;97388.16;;;-3.09;92.53
45129;BME280;35512;56.312;101.728;2022-10-01T14:26:38;97394.22;;;-3.08;93.12
45129;BME280;35512;56.312;101.728;2022-10-01T14:32:01;97394.75;;;-3.11;92.65
45129;BME280;35512;56.312;101.728;2022-10-01T14:37:17;97394.47;;;-3.15;92.75
45129;BME280;35512;56.312;101.728;2022-10-01T14:39:59;97387.56;;;-3.16;92.88
45129;BME280;35512;56.312;101.728;2022-10-01T14:42:30;97390.47;;;-3.17;93.13
45129;BME280;35512;56.312;101.728;2022-10-01T14:44:59;97388.06;;;-3.19;93.27
45129;BME280;35512;56.312;101.728;2022-10-01T14:47:29;97392.59;;;-3.14;93.14
45129;BME280;35512;56.312;101.728;2022-10-01T14:50:11;97400.28;;;-3.13;93.04
45129;BME280;35512;56.312;101.728;2022-10-01T14:52:48;97403.97;;;-3.14;92.86
45129;BME280;35512;56.312;101.728;2022-10-01T14:55:22;97405.06;;;-3.10;92.81
45129;BME280;35512;56.312;101.728;2022-10-01T14:57:54;97401.31;;;-3.14;93.19
45129;BME280;35512;56.312;101.728;2022-10-01T15:00:27;97407.44;;;-3.08;92.96
45129;BME280;35512;56.312;101.728;2022-10-01T15:03:15;97398.47;;;-3.07;92.96
45129;BME280;35512;56.312;101.728;2022-10-01T15:05:46;97403.50;;;-3.06;93.20
45129;BME280;35512;56.312;101.728;2022-10-01T15:08:20;97398.47;;;-3.07;93.07
45129;BME280;35512;56.312;101.728;2022-10-01T15:10:57;97383.31;;;-3.17;93.05
45129;BME280;35512;56.312;101.728;2022-10-01T15:13:32;97405.41;;;-3.01;93.29
45129;BME280;35512;56.312;101.728;2022-10-01T15:16:03;97399.31;;;-3.01;93.03
45129;BME280;35512;56.312;101.728;2022-10-01T15:18:33;97412.06;;;-2.98;92.99